createdAt,value
2017-11-17T00:00:04.524Z,8.1
2017-11-17T00:01:12.085Z,8.1
2017-11-17T00:02:18.473Z,8.1
2017-11-17T00:03:21.830Z,8.1
2017-11-17T00:04:24.317Z,8.1
2017-11-17T00:05:26.839Z,8.1
2017-11-17T00:06:29.436Z,8.1
2017-11-17T00:07:31.937Z,8.1
2017-11-17T00:08:35.015Z,8.1
2017-11-17T00:09:37.606Z,8.1
2017-11-17T00:10:40.795Z,8.1
2017-11-17T00:11:43.292Z,8.1
2017-11-17T00:12:45.795Z,8.1
2017-11-17T00:13:48.583Z,8.1
2017-11-17T00:14:51.091Z,8.1
2017-11-17T00:15:53.618Z,8.2
2017-11-17T00:16:56.108Z,8.2
2017-11-17T00:17:58.604Z,8.2
2017-11-17T00:19:01.110Z,8.2
2017-11-17T00:20:03.599Z,8.2
2017-11-17T00:21:06.116Z,8.2
2017-11-17T00:22:08.605Z,8.2
2017-11-17T00:23:11.398Z,8.2
2017-11-17T00:24:13.906Z,8.2
2017-11-17T00:25:16.396Z,8.2
2017-11-17T00:26:19.200Z,8.2
2017-11-17T00:27:21.692Z,8.2
2017-11-17T00:28:24.183Z,8.2
2017-11-17T00:29:26.686Z,8.2
2017-11-17T00:30:29.192Z,8.2
2017-11-17T00:31:31.679Z,8.2
2017-11-17T00:32:34.183Z,8.2
2017-11-17T00:33:37.300Z,8.2
2017-11-17T00:34:40.395Z,8.2
2017-11-17T00:35:42.895Z,8.2
2017-11-17T00:36:45.680Z,8.2
2017-11-17T00:37:48.193Z,8.2
2017-11-17T00:38:50.697Z,8.2
2017-11-17T00:39:53.198Z,8.2
2017-11-17T00:40:56.002Z,8.2
2017-11-17T00:41:58.490Z,8.2
2017-11-17T00:43:00.990Z,8.2
2017-11-17T00:44:04.117Z,8.2
2017-11-17T00:45:06.619Z,8.2
2017-11-17T00:46:09.115Z,8.2
2017-11-17T00:47:11.609Z,8.1
2017-11-17T00:48:14.104Z,8.1
2017-11-17T00:49:16.618Z,8.1
2017-11-17T00:50:19.122Z,8.1
2017-11-17T00:51:21.620Z,8.1
2017-11-17T00:52:24.120Z,8.1
2017-11-17T00:53:26.611Z,8.1
2017-11-17T00:54:29.105Z,8.1
2017-11-17T00:55:31.616Z,8.1
2017-11-17T00:56:34.109Z,8.1
2017-11-17T00:57:36.912Z,8.1
2017-11-17T00:58:39.413Z,8.1
2017-11-17T00:59:41.917Z,8.1
2017-11-17T01:00:44.409Z,8.1
2017-11-17T01:01:46.911Z,8.1
2017-11-17T01:02:49.703Z,8.1
2017-11-17T01:03:52.195Z,8.1
2017-11-17T01:04:54.698Z,8.1
2017-11-17T01:05:57.201Z,8.1
2017-11-17T01:06:59.695Z,8
2017-11-17T01:08:02.190Z,8
2017-11-17T01:09:04.688Z,8
2017-11-17T01:10:07.187Z,8
2017-11-17T01:11:09.992Z,8
2017-11-17T01:12:12.788Z,8
2017-11-17T01:13:15.584Z,8
2017-11-17T01:14:18.095Z,8
2017-11-17T01:15:20.598Z,8
2017-11-17T01:16:23.106Z,8
2017-11-17T01:17:25.605Z,8
2017-11-17T01:18:28.389Z,8
2017-11-17T01:19:30.886Z,8
2017-11-17T01:20:33.405Z,8
2017-11-17T01:21:35.898Z,8
2017-11-17T01:22:38.694Z,8
2017-11-17T01:23:41.197Z,8
2017-11-17T01:24:43.982Z,7.9
2017-11-17T01:25:46.786Z,7.9
2017-11-17T01:26:49.297Z,7.9
2017-11-17T01:27:51.781Z,7.9
2017-11-17T01:28:54.602Z,7.9
2017-11-17T01:29:57.091Z,7.9
2017-11-17T01:30:59.597Z,7.9
2017-11-17T01:32:02.085Z,7.9
2017-11-17T01:33:04.588Z,7.9
2017-11-17T01:34:07.085Z,7.8
2017-11-17T01:35:09.883Z,7.8
2017-11-17T01:36:12.380Z,7.8
2017-11-17T01:37:14.886Z,7.8
2017-11-17T01:38:17.368Z,7.8
2017-11-17T01:39:19.887Z,7.8
2017-11-17T01:40:22.383Z,7.8
2017-11-17T01:41:24.870Z,7.8
2017-11-17T01:42:27.368Z,7.7
2017-11-17T01:43:29.868Z,7.7
2017-11-17T01:44:32.368Z,7.7
2017-11-17T01:45:34.880Z,7.7
2017-11-17T01:46:37.365Z,7.7
2017-11-17T01:47:39.869Z,7.7
2017-11-17T01:48:42.366Z,7.6
2017-11-17T01:49:44.861Z,7.6
2017-11-17T01:50:47.653Z,7.6
2017-11-17T01:51:50.161Z,7.6
2017-11-17T01:52:52.644Z,7.6
2017-11-17T01:53:55.162Z,7.6
2017-11-17T01:54:57.652Z,7.5
2017-11-17T01:56:00.143Z,7.5
2017-11-17T01:57:02.636Z,7.5
2017-11-17T01:58:05.137Z,7.5
2017-11-17T01:59:07.622Z,7.4
2017-11-17T02:00:10.117Z,7.4
2017-11-17T02:01:12.614Z,7.4
2017-11-17T02:02:15.114Z,7.4
2017-11-17T02:03:17.636Z,7.4
2017-11-17T02:04:20.136Z,7.3
2017-11-17T02:05:22.620Z,7.3
2017-11-17T02:06:25.414Z,7.3
2017-11-17T02:07:27.913Z,7.2
2017-11-17T02:08:30.413Z,7.2
2017-11-17T02:09:33.199Z,7.1
2017-11-17T02:10:35.687Z,7.1
2017-11-17T02:11:38.190Z,7
2017-11-17T02:12:40.698Z,7
2017-11-17T02:13:43.200Z,6.9
2017-11-17T02:14:45.694Z,6.9
2017-11-17T02:15:48.191Z,6.8
2017-11-17T02:16:50.684Z,6.7
2017-11-17T02:17:53.202Z,6.8
2017-11-17T02:18:55.696Z,6.8
2017-11-17T02:19:58.768Z,6.8
2017-11-17T02:21:01.271Z,6.8
2017-11-17T02:22:03.776Z,6.8
2017-11-17T02:23:06.271Z,6.8
2017-11-17T02:24:08.770Z,6.8
2017-11-17T02:25:11.258Z,6.8
2017-11-17T02:26:13.754Z,6.8
2017-11-17T02:27:16.269Z,6.8
2017-11-17T02:28:18.764Z,6.8
2017-11-17T02:29:21.258Z,6.7
2017-11-17T02:30:23.753Z,6.7
2017-11-17T02:31:26.256Z,6.7
2017-11-17T02:32:28.759Z,6.7
2017-11-17T02:33:31.553Z,6.7
2017-11-17T02:34:34.054Z,6.7
2017-11-17T02:35:36.558Z,6.7
2017-11-17T02:36:39.035Z,6.7
2017-11-17T02:37:41.549Z,6.6
2017-11-17T02:38:44.031Z,6.6
2017-11-17T02:39:46.827Z,6.5
2017-11-17T02:40:49.327Z,6.5
2017-11-17T02:41:51.819Z,6.5
2017-11-17T02:42:54.320Z,6.5
2017-11-17T02:43:57.437Z,6.4
2017-11-17T02:44:59.919Z,6.3
2017-11-17T02:46:02.414Z,6.3
2017-11-17T02:47:04.917Z,6.2
2017-11-17T02:48:07.415Z,6.2
2017-11-17T02:49:09.913Z,6.2
2017-11-17T02:50:12.416Z,6.2
2017-11-17T02:51:14.901Z,6.2
2017-11-17T02:52:17.415Z,6.2
2017-11-17T02:53:19.907Z,6.2
2017-11-17T02:54:22.405Z,6.2
2017-11-17T02:55:24.896Z,6.2
2017-11-17T02:56:27.993Z,6.2
2017-11-17T02:57:30.482Z,6.1
2017-11-17T02:58:32.989Z,6.1
2017-11-17T02:59:35.790Z,6
2017-11-17T03:00:38.289Z,6
2017-11-17T03:01:40.772Z,5.9
2017-11-17T03:02:43.287Z,5.8
2017-11-17T03:03:45.767Z,5.9
2017-11-17T03:04:48.560Z,5.8
2017-11-17T03:05:51.050Z,5.8
2017-11-17T03:06:53.556Z,5.7
2017-11-17T03:07:56.060Z,5.7
2017-11-17T03:08:58.558Z,5.6
2017-11-17T03:10:01.340Z,5.6
2017-11-17T03:11:04.137Z,5.5
2017-11-17T03:12:06.639Z,5.6
2017-11-17T03:13:09.435Z,5.5
2017-11-17T03:14:11.926Z,5.5
2017-11-17T03:15:14.417Z,5.4
2017-11-17T03:16:17.209Z,5.4
2017-11-17T03:17:19.714Z,5.4
2017-11-17T03:18:22.207Z,5.4
2017-11-17T03:19:24.702Z,5.4
2017-11-17T03:20:27.195Z,5.3
2017-11-17T03:21:29.698Z,5.3
2017-11-17T03:22:32.191Z,5.3
2017-11-17T03:23:34.692Z,5.2
2017-11-17T03:24:37.168Z,5.2
2017-11-17T03:25:39.669Z,5.2
2017-11-17T03:26:42.476Z,5.2
2017-11-17T03:27:45.276Z,5.2
2017-11-17T03:28:47.773Z,5.2
2017-11-17T03:29:50.264Z,5.1
2017-11-17T03:30:52.761Z,5.1
2017-11-17T03:31:55.271Z,5.1
2017-11-17T03:32:57.764Z,5.1
2017-11-17T03:34:00.270Z,5
2017-11-17T03:35:03.063Z,5
2017-11-17T03:36:05.556Z,5
2017-11-17T03:37:08.060Z,4.9
2017-11-17T03:38:10.551Z,4.9
2017-11-17T03:39:13.051Z,4.9
2017-11-17T03:40:15.547Z,4.9
2017-11-17T03:41:18.040Z,5
2017-11-17T03:42:20.531Z,5
2017-11-17T03:43:23.317Z,5
2017-11-17T03:44:26.103Z,4.9
2017-11-17T03:45:28.604Z,4.9
2017-11-17T03:46:31.106Z,4.8
2017-11-17T03:47:33.591Z,4.8
2017-11-17T03:48:36.088Z,4.8
2017-11-17T03:49:38.571Z,4.8
2017-11-17T03:50:41.068Z,4.8
2017-11-17T03:51:43.567Z,4.7
2017-11-17T03:52:46.057Z,4.7
2017-11-17T03:53:48.560Z,4.6
2017-11-17T03:54:51.055Z,4.6
2017-11-17T03:55:53.557Z,4.6
2017-11-17T03:56:56.060Z,4.6
2017-11-17T03:57:58.558Z,4.6
2017-11-17T03:59:01.053Z,4.6
2017-11-17T04:00:03.850Z,4.6
2017-11-17T04:01:06.346Z,4.6
2017-11-17T04:02:09.125Z,4.6
2017-11-17T04:03:11.857Z,4.5
2017-11-17T04:04:14.350Z,4.5
2017-11-17T04:05:16.839Z,4.5
2017-11-17T04:06:19.347Z,4.4
2017-11-17T04:07:21.835Z,4.4
2017-11-17T04:08:24.328Z,4.5
2017-11-17T04:09:26.834Z,4.5
2017-11-17T04:10:29.332Z,4.4
2017-11-17T04:11:31.827Z,4.4
2017-11-17T04:12:34.333Z,4.4
2017-11-17T04:13:36.821Z,4.3
2017-11-17T04:14:39.313Z,4.3
2017-11-17T04:15:41.810Z,4.2
2017-11-17T04:16:44.287Z,4.2
2017-11-17T04:17:46.783Z,4.2
2017-11-17T04:18:49.289Z,4.2
2017-11-17T04:19:52.278Z,4.2
2017-11-17T04:20:55.365Z,4.1
2017-11-17T04:21:57.859Z,4.1
2017-11-17T04:23:00.353Z,4
2017-11-17T04:24:02.860Z,4.1
2017-11-17T04:25:05.348Z,4.1
2017-11-17T04:26:08.122Z,4
2017-11-17T04:27:10.616Z,3.9
2017-11-17T04:28:13.121Z,3.9
2017-11-17T04:29:15.609Z,3.8
2017-11-17T04:30:18.103Z,3.8
2017-11-17T04:31:20.600Z,3.8
2017-11-17T04:32:23.107Z,3.8
2017-11-17T04:33:25.591Z,3.7
2017-11-17T04:34:28.091Z,3.7
2017-11-17T04:35:30.588Z,3.7
2017-11-17T04:36:33.080Z,3.7
2017-11-17T04:37:35.574Z,3.6
2017-11-17T04:38:38.072Z,3.6
2017-11-17T04:39:40.845Z,3.6
2017-11-17T04:40:43.680Z,3.6
2017-11-17T04:41:46.469Z,3.6
2017-11-17T04:42:48.957Z,3.6
2017-11-17T04:43:51.459Z,3.6
2017-11-17T04:44:53.952Z,3.6
2017-11-17T04:45:56.757Z,3.8
2017-11-17T04:46:59.255Z,3.7
2017-11-17T04:48:02.045Z,3.7
2017-11-17T04:49:04.536Z,3.6
2017-11-17T04:50:07.049Z,3.7
2017-11-17T04:51:09.527Z,3.6
2017-11-17T04:52:12.028Z,3.6
2017-11-17T04:53:14.513Z,3.5
2017-11-17T04:54:17.006Z,3.6
2017-11-17T04:55:19.504Z,3.6
2017-11-17T04:56:22.306Z,3.5
2017-11-17T04:57:24.794Z,3.5
2017-11-17T04:58:27.587Z,3.5
2017-11-17T04:59:30.091Z,3.5
2017-11-17T05:00:32.590Z,3.5
2017-11-17T05:01:35.393Z,3.5
2017-11-17T05:02:37.889Z,3.5
2017-11-17T05:03:40.387Z,3.5
2017-11-17T05:04:42.867Z,3.5
2017-11-17T05:05:45.672Z,3.4
2017-11-17T05:06:48.150Z,3.4
2017-11-17T05:07:50.650Z,3.4
2017-11-17T05:08:53.142Z,3.4
2017-11-17T05:09:55.639Z,3.4
2017-11-17T05:10:58.428Z,3.4
2017-11-17T05:12:00.945Z,3.4
2017-11-17T05:13:03.739Z,3.4
2017-11-17T05:14:06.242Z,3.4
2017-11-17T05:15:08.743Z,3.4
2017-11-17T05:16:11.214Z,3.3
2017-11-17T05:17:13.725Z,3.3
2017-11-17T05:18:16.216Z,3.3
2017-11-17T05:19:19.133Z,3.3
2017-11-17T05:20:21.665Z,3.2
2017-11-17T05:21:24.461Z,3.2
2017-11-17T05:22:26.947Z,3.2
2017-11-17T05:23:29.451Z,3.2
2017-11-17T05:24:31.932Z,3.1
2017-11-17T05:25:34.737Z,3.1
2017-11-17T05:26:37.233Z,3.2
2017-11-17T05:27:39.730Z,3.2
2017-11-17T05:28:42.217Z,3.1
2017-11-17T05:29:44.713Z,3.1
2017-11-17T05:30:47.217Z,3.2
2017-11-17T05:31:50.006Z,3.1
2017-11-17T05:32:52.491Z,3.2
2017-11-17T05:33:54.986Z,3.1
2017-11-17T05:34:57.478Z,3.1
2017-11-17T05:35:59.978Z,3.1
2017-11-17T05:37:02.772Z,3.1
2017-11-17T05:38:05.547Z,3
2017-11-17T05:39:08.049Z,3.1
2017-11-17T05:40:10.554Z,3.1
2017-11-17T05:41:13.045Z,3.1
2017-11-17T05:42:15.547Z,3.1
2017-11-17T05:43:18.335Z,3.1
2017-11-17T05:44:20.834Z,3.1
2017-11-17T05:45:23.327Z,3.1
2017-11-17T05:46:25.837Z,3
2017-11-17T05:47:28.320Z,3
2017-11-17T05:48:30.823Z,3
2017-11-17T05:49:33.335Z,3
2017-11-17T05:50:35.812Z,3
2017-11-17T05:51:38.313Z,3
2017-11-17T05:52:40.805Z,2.9
2017-11-17T05:53:43.301Z,3
2017-11-17T05:54:45.791Z,2.9
2017-11-17T05:55:48.583Z,2.9
2017-11-17T05:56:51.080Z,2.9
2017-11-17T05:57:53.585Z,2.9
2017-11-17T05:58:56.078Z,2.8
2017-11-17T05:59:58.569Z,2.8
2017-11-17T06:01:01.105Z,2.8
2017-11-17T06:02:03.843Z,2.8
2017-11-17T06:03:06.334Z,2.8
2017-11-17T06:04:09.163Z,2.8
2017-11-17T06:05:11.641Z,2.7
2017-11-17T06:06:14.139Z,2.7
2017-11-17T06:07:16.634Z,2.7
2017-11-17T06:08:19.125Z,2.7
2017-11-17T06:09:21.622Z,2.7
2017-11-17T06:10:24.120Z,2.6
2017-11-17T06:11:26.601Z,2.6
2017-11-17T06:12:29.105Z,2.6
2017-11-17T06:13:31.587Z,2.6
2017-11-17T06:14:34.084Z,2.6
2017-11-17T06:15:36.582Z,2.5
2017-11-17T06:16:39.070Z,2.5
2017-11-17T06:17:41.558Z,2.5
2017-11-17T06:18:44.055Z,2.5
2017-11-17T06:19:46.545Z,2.5
2017-11-17T06:20:49.047Z,2.5
2017-11-17T06:21:51.534Z,2.5
2017-11-17T06:22:54.022Z,2.5
2017-11-17T06:23:56.509Z,2.5
2017-11-17T06:24:59.301Z,2.5
2017-11-17T06:26:01.800Z,2.4
2017-11-17T06:27:04.586Z,2.4
2017-11-17T06:28:07.085Z,2.4
2017-11-17T06:29:10.229Z,2.3
2017-11-17T06:30:12.723Z,2.3
2017-11-17T06:31:15.512Z,2.3
2017-11-17T06:32:18.012Z,2.3
2017-11-17T06:33:20.800Z,2.3
2017-11-17T06:34:23.294Z,2.2
2017-11-17T06:35:25.936Z,2.2
2017-11-17T06:36:28.464Z,2.2
2017-11-17T06:37:30.937Z,2.2
2017-11-17T06:38:33.430Z,2.2
2017-11-17T06:39:35.917Z,2.1
2017-11-17T06:40:38.408Z,2.1
2017-11-17T06:41:41.207Z,2.1
2017-11-17T06:42:43.704Z,2.1
2017-11-17T06:43:46.490Z,2.1
2017-11-17T06:44:49.261Z,2.1
2017-11-17T06:45:52.045Z,2.1
2017-11-17T06:46:54.877Z,2.1
2017-11-17T06:47:57.959Z,2.1
2017-11-17T06:49:00.441Z,2.1
2017-11-17T06:50:02.940Z,2.2
2017-11-17T06:51:05.736Z,2.1
2017-11-17T06:52:08.232Z,2.1
2017-11-17T06:53:10.732Z,2.2
2017-11-17T06:54:13.514Z,2.1
2017-11-17T06:55:16.031Z,2.1
2017-11-17T06:56:18.516Z,2.1
2017-11-17T06:57:20.999Z,2.1
2017-11-17T06:58:23.493Z,2.1
2017-11-17T06:59:25.985Z,2.1
2017-11-17T07:00:28.479Z,2.1
2017-11-17T07:01:31.269Z,2.1
2017-11-17T07:02:33.772Z,2.1
2017-11-17T07:03:36.272Z,2.2
2017-11-17T07:04:38.764Z,2.2
2017-11-17T07:05:41.261Z,2.2
2017-11-17T07:06:43.760Z,2.2
2017-11-17T07:07:46.245Z,2.2
2017-11-17T07:08:48.749Z,2.2
2017-11-17T07:09:51.523Z,2.3
2017-11-17T07:10:54.023Z,2.3
2017-11-17T07:11:56.813Z,2.4
2017-11-17T07:12:59.292Z,2.4
2017-11-17T07:14:02.099Z,2.4
2017-11-17T07:15:04.596Z,2.5
2017-11-17T07:16:07.384Z,2.5
2017-11-17T07:17:10.484Z,2.5
2017-11-17T07:18:12.979Z,2.6
2017-11-17T07:19:15.470Z,2.6
2017-11-17T07:20:17.987Z,2.7
2017-11-17T07:21:20.481Z,2.8
2017-11-17T07:22:22.964Z,2.8
2017-11-17T07:23:25.462Z,2.9
2017-11-17T07:24:27.959Z,2.9
2017-11-17T07:25:30.455Z,2.9
2017-11-17T07:26:32.938Z,3
2017-11-17T07:27:35.457Z,3.1
2017-11-17T07:28:37.980Z,3.1
2017-11-17T07:29:40.437Z,3.1
2017-11-17T07:30:42.936Z,3.2
2017-11-17T07:31:45.426Z,3.3
2017-11-17T07:32:47.926Z,3.4
2017-11-17T07:33:50.430Z,3.4
2017-11-17T07:34:52.918Z,3.4
2017-11-17T07:35:55.709Z,3.4
2017-11-17T07:36:58.218Z,3.4
2017-11-17T07:38:01.016Z,3.4
2017-11-17T07:39:03.508Z,3.5
2017-11-17T07:40:06.003Z,3.5
2017-11-17T07:41:08.500Z,3.5
2017-11-17T07:42:11.292Z,3.7
2017-11-17T07:43:13.791Z,3.7
2017-11-17T07:44:16.278Z,3.8
2017-11-17T07:45:18.785Z,3.7
2017-11-17T07:46:21.278Z,3.8
2017-11-17T07:47:23.779Z,3.7
2017-11-17T07:48:26.854Z,3.8
2017-11-17T07:49:29.354Z,3.6
2017-11-17T07:50:31.858Z,3.7
2017-11-17T07:51:34.645Z,3.7
2017-11-17T07:52:37.139Z,3.7
2017-11-17T07:53:39.630Z,3.7
2017-11-17T07:54:42.116Z,3.7
2017-11-17T07:55:44.625Z,3.9
2017-11-17T07:56:47.715Z,3.8
2017-11-17T07:57:50.212Z,3.9
2017-11-17T07:58:52.699Z,4
2017-11-17T07:59:55.499Z,4.1
2017-11-17T08:00:57.986Z,4.2
2017-11-17T08:02:00.478Z,4.3
2017-11-17T08:03:03.296Z,4.4
2017-11-17T08:04:06.069Z,4.5
2017-11-17T08:05:08.569Z,4.6
2017-11-17T08:06:11.071Z,4.7
2017-11-17T08:07:13.857Z,4.8
2017-11-17T08:08:16.357Z,4.7
2017-11-17T08:09:18.861Z,4.9
2017-11-17T08:10:21.365Z,5.1
2017-11-17T08:11:24.155Z,5.1
2017-11-17T08:12:26.645Z,5.3
2017-11-17T08:13:29.139Z,5.3
2017-11-17T08:14:31.641Z,5.4
2017-11-17T08:15:34.131Z,5.4
2017-11-17T08:16:36.943Z,5.5
2017-11-17T08:17:39.774Z,5.7
2017-11-17T08:18:42.289Z,5.6
2017-11-17T08:19:44.765Z,5.7
2017-11-17T08:20:47.261Z,5.8
2017-11-17T08:21:50.051Z,5.7
2017-11-17T08:22:52.548Z,5.8
2017-11-17T08:23:55.045Z,5.8
2017-11-17T08:24:57.887Z,5.8
2017-11-17T08:26:00.384Z,5.9
2017-11-17T08:27:02.907Z,5.9
2017-11-17T08:28:05.401Z,5.9
2017-11-17T08:29:07.887Z,6
2017-11-17T08:30:10.396Z,6
2017-11-17T08:31:12.887Z,6.1
2017-11-17T08:32:15.690Z,6.1
2017-11-17T08:33:18.191Z,6.2
2017-11-17T08:34:20.681Z,6.2
2017-11-17T08:35:23.181Z,6.2
2017-11-17T08:36:25.698Z,6.3
2017-11-17T08:37:28.195Z,6.3
2017-11-17T08:38:30.694Z,6.3
2017-11-17T08:39:33.206Z,6.5
2017-11-17T08:40:35.695Z,6.6
2017-11-17T08:41:38.210Z,6.5
2017-11-17T08:42:41.017Z,6.5
2017-11-17T08:43:43.504Z,6.6
2017-11-17T08:44:46.017Z,6.6
2017-11-17T08:45:48.519Z,6.7
2017-11-17T08:46:51.019Z,6.7
2017-11-17T08:47:53.679Z,6.8
2017-11-17T08:48:56.570Z,6.9
2017-11-17T08:49:59.068Z,6.9
2017-11-17T08:51:01.600Z,7
2017-11-17T08:52:04.464Z,7
2017-11-17T08:53:06.961Z,7
2017-11-17T08:54:09.467Z,7
2017-11-17T08:55:11.955Z,7.1
2017-11-17T08:56:14.895Z,7.1
2017-11-17T08:57:17.415Z,7.1
2017-11-17T08:58:20.215Z,7.2
2017-11-17T08:59:22.722Z,7.2
2017-11-17T09:00:25.499Z,7.1
2017-11-17T09:01:28.013Z,7.2
2017-11-17T09:02:30.849Z,7.2
2017-11-17T09:03:33.359Z,7.3
2017-11-17T09:04:36.467Z,7.4
2017-11-17T09:05:38.970Z,7.4
2017-11-17T09:06:41.477Z,7.6
2017-11-17T09:07:43.990Z,7.7
2017-11-17T09:08:46.486Z,7.9
2017-11-17T09:09:49.269Z,8
2017-11-17T09:10:51.782Z,7.9
2017-11-17T09:11:54.602Z,7.9
2017-11-17T09:12:57.119Z,7.9
2017-11-17T09:13:59.626Z,8
2017-11-17T09:15:02.116Z,8.2
2017-11-17T09:16:04.637Z,8.3
2017-11-17T09:17:07.167Z,8.3
2017-11-17T09:18:09.664Z,8.3
2017-11-17T09:19:12.463Z,8.5
2017-11-17T09:20:14.964Z,8.6
2017-11-17T09:21:17.462Z,8.6
2017-11-17T09:22:19.976Z,8.6
2017-11-17T09:23:22.483Z,8.7
2017-11-17T09:24:24.970Z,8.4
2017-11-17T09:25:27.482Z,8.3
2017-11-17T09:26:29.991Z,8.7
2017-11-17T09:27:32.500Z,8.8
2017-11-17T09:28:35.000Z,9
2017-11-17T09:29:37.499Z,9.2
2017-11-17T09:30:40.010Z,9.2
2017-11-17T09:31:42.832Z,9.5
2017-11-17T09:32:45.341Z,9.6
2017-11-17T09:33:47.853Z,9.7
2017-11-17T09:34:50.348Z,9.8
2017-11-17T09:35:53.166Z,9.7
2017-11-17T09:36:55.669Z,9.7
2017-11-17T09:37:58.171Z,9.9
2017-11-17T09:39:00.687Z,10
2017-11-17T09:40:03.191Z,10.1
2017-11-17T09:41:05.696Z,9.9
2017-11-17T09:42:08.507Z,10
2017-11-17T09:43:11.013Z,10
2017-11-17T09:44:13.524Z,10.1
2017-11-17T09:45:16.031Z,10
2017-11-17T09:46:18.534Z,10.1
2017-11-17T09:47:21.039Z,10.2
2017-11-17T09:48:23.545Z,10.2
2017-11-17T09:49:26.046Z,10.3
2017-11-17T09:50:28.562Z,10.5
2017-11-17T09:51:31.069Z,10.5
2017-11-17T09:52:33.575Z,10.5
2017-11-17T09:53:36.079Z,10.6
2017-11-17T09:54:38.885Z,10.7
2017-11-17T09:55:41.397Z,10.4
2017-11-17T09:56:43.909Z,10.4
2017-11-17T09:57:46.407Z,10.5
2017-11-17T09:58:48.929Z,10.6
2017-11-17T09:59:51.435Z,10.4
2017-11-17T10:00:53.957Z,10.6
2017-11-17T10:01:56.464Z,10.9
2017-11-17T10:02:58.978Z,11.1
2017-11-17T10:04:01.490Z,10.6
2017-11-17T10:05:04.313Z,11
2017-11-17T10:06:07.137Z,10.9
2017-11-17T10:07:09.646Z,11.2
2017-11-17T10:08:12.149Z,11.4
2017-11-17T10:09:14.981Z,11.2
2017-11-17T10:10:17.786Z,11.3
2017-11-17T10:11:20.292Z,11.5
2017-11-17T10:12:22.800Z,11.4
2017-11-17T10:13:25.605Z,11.3
2017-11-17T10:14:28.117Z,11.6
2017-11-17T10:15:30.625Z,11.6
2017-11-17T10:16:33.425Z,11.3
2017-11-17T10:17:36.261Z,11.3
2017-11-17T10:18:39.057Z,11.2
2017-11-17T10:19:41.568Z,11.4
2017-11-17T10:20:44.080Z,11.4
2017-11-17T10:21:46.591Z,11.4
2017-11-17T10:22:49.388Z,11.3
2017-11-17T10:23:51.919Z,11.5
2017-11-17T10:24:54.736Z,11.8
2017-11-17T10:25:57.529Z,11.7
2017-11-17T10:27:00.050Z,11.7
2017-11-17T10:28:02.567Z,11.8
2017-11-17T10:29:05.376Z,11.9
2017-11-17T10:30:07.897Z,12.1
2017-11-17T10:31:10.406Z,11.9
2017-11-17T10:32:12.909Z,11.8
2017-11-17T10:33:15.442Z,11.8
2017-11-17T10:34:17.948Z,11.7
2017-11-17T10:35:20.453Z,12.2
2017-11-17T10:36:22.966Z,12.1
2017-11-17T10:37:25.483Z,12.3
2017-11-17T10:38:27.993Z,12.4
2017-11-17T10:39:30.520Z,12.2
2017-11-17T10:40:33.312Z,12.2
2017-11-17T10:41:35.827Z,12.3
2017-11-17T10:42:38.341Z,12.2
2017-11-17T10:43:40.849Z,12.6
2017-11-17T10:44:43.658Z,12.3
2017-11-17T10:45:46.175Z,12.3
2017-11-17T10:46:48.684Z,12.3
2017-11-17T10:47:51.210Z,12.1
2017-11-17T10:48:54.027Z,12.6
2017-11-17T10:49:56.534Z,12.3
2017-11-17T10:50:59.053Z,12.3
2017-11-17T10:52:01.571Z,12.4
2017-11-17T10:53:04.080Z,12.5
2017-11-17T10:54:06.595Z,12.7
2017-11-17T10:55:09.107Z,12.7
2017-11-17T10:56:11.633Z,12.7
2017-11-17T10:57:14.145Z,12.7
2017-11-17T10:58:16.658Z,12.7
2017-11-17T10:59:19.478Z,12.7
2017-11-17T11:00:21.986Z,13.1
2017-11-17T11:01:24.801Z,12.9
2017-11-17T11:02:27.312Z,12.8
2017-11-17T11:03:30.140Z,12.6
2017-11-17T11:04:32.656Z,12.7
2017-11-17T11:05:35.165Z,12.9
2017-11-17T11:06:37.656Z,12.8
2017-11-17T11:07:40.173Z,12.8
2017-11-17T11:08:42.702Z,12.8
2017-11-17T11:09:45.209Z,12.8
2017-11-17T11:10:47.728Z,12.9
2017-11-17T11:11:50.221Z,13
2017-11-17T11:12:52.738Z,13.1
2017-11-17T11:13:55.267Z,13.1
2017-11-17T11:14:57.784Z,13.4
2017-11-17T11:16:00.297Z,13.1
2017-11-17T11:17:02.809Z,13.1
2017-11-17T11:18:05.320Z,13.1
2017-11-17T11:19:07.838Z,13.3
2017-11-17T11:20:10.353Z,13.2
2017-11-17T11:21:12.857Z,13.3
2017-11-17T11:22:15.441Z,13.1
2017-11-17T11:23:17.998Z,13.1
2017-11-17T11:24:20.518Z,12.6
2017-11-17T11:25:23.349Z,12.7
2017-11-17T11:26:25.868Z,12.8
2017-11-17T11:27:28.384Z,13
2017-11-17T11:28:30.897Z,12.9
2017-11-17T11:29:33.401Z,12.6
2017-11-17T11:30:36.223Z,12.9
2017-11-17T11:31:38.720Z,12.9
2017-11-17T11:32:41.248Z,13.2
2017-11-17T11:33:43.759Z,13.5
2017-11-17T11:34:46.276Z,13.2
2017-11-17T11:35:48.789Z,13.2
2017-11-17T11:36:51.308Z,13.6
2017-11-17T11:37:53.811Z,13.7
2017-11-17T11:38:56.341Z,13.3
2017-11-17T11:39:58.846Z,12.9
2017-11-17T11:41:01.360Z,13
2017-11-17T11:42:03.879Z,13.2
2017-11-17T11:43:06.389Z,13.6
2017-11-17T11:44:08.919Z,13.8
2017-11-17T11:45:11.433Z,13.4
2017-11-17T11:46:14.240Z,13.3
2017-11-17T11:47:16.763Z,13.3
2017-11-17T11:48:19.279Z,13.2
2017-11-17T11:49:21.792Z,13.2
2017-11-17T11:50:24.629Z,12.8
2017-11-17T11:51:27.144Z,13.1
2017-11-17T11:52:29.649Z,13.3
2017-11-17T11:53:32.177Z,13.3
2017-11-17T11:54:34.681Z,13.5
2017-11-17T11:55:37.790Z,13.4
2017-11-17T11:56:40.314Z,13.3
2017-11-17T11:57:42.823Z,13.3
2017-11-17T11:58:45.331Z,13.3
2017-11-17T11:59:47.851Z,13.2
2017-11-17T12:00:50.354Z,13.1
2017-11-17T12:01:53.203Z,13.1
2017-11-17T12:02:56.014Z,13.1
2017-11-17T12:03:58.516Z,13.2
2017-11-17T12:05:01.333Z,13.2
2017-11-17T12:06:03.847Z,12.9
2017-11-17T12:07:06.366Z,12.8
2017-11-17T12:08:08.876Z,13.1
2017-11-17T12:09:11.392Z,13.1
2017-11-17T12:10:14.204Z,13
2017-11-17T12:11:16.728Z,13.2
2017-11-17T12:12:19.252Z,13.3
2017-11-17T12:13:21.735Z,12.9
2017-11-17T12:14:24.261Z,13
2017-11-17T12:15:26.772Z,13
2017-11-17T12:16:29.289Z,12.9
2017-11-17T12:17:32.098Z,12.8
2017-11-17T12:18:34.902Z,12.9
2017-11-17T12:19:37.411Z,12.9
2017-11-17T12:20:39.946Z,13.2
2017-11-17T12:21:42.447Z,13.2
2017-11-17T12:22:44.960Z,13
2017-11-17T12:23:47.473Z,12.9
2017-11-17T12:24:49.990Z,13.1
2017-11-17T12:25:58.043Z,12.7
2017-11-17T12:27:06.834Z,12.6
2017-11-17T12:28:11.398Z,12.6
2017-11-17T12:29:13.921Z,12.6
2017-11-17T12:30:16.423Z,12.6
2017-11-17T12:31:18.943Z,12.6
2017-11-17T12:32:21.453Z,12.5
2017-11-17T12:33:23.971Z,12.4
2017-11-17T12:34:26.481Z,12.7
2017-11-17T12:35:28.995Z,12.6
2017-11-17T12:36:31.806Z,12.6
2017-11-17T12:37:34.346Z,12.6
2017-11-17T12:38:36.835Z,12.4
2017-11-17T12:39:39.949Z,12.4
2017-11-17T12:40:42.467Z,12.3
2017-11-17T12:41:45.023Z,12.1
2017-11-17T12:42:47.631Z,12.2
2017-11-17T12:43:51.535Z,12.2
2017-11-17T12:44:54.064Z,12.2
2017-11-17T12:45:56.633Z,12.3
2017-11-17T12:46:59.462Z,11.9
2017-11-17T12:48:02.309Z,11.9
2017-11-17T12:49:04.886Z,11.8
2017-11-17T12:50:07.396Z,11.9
2017-11-17T12:51:10.015Z,11.7
2017-11-17T12:52:12.531Z,11.7
2017-11-17T12:53:15.049Z,11.9
2017-11-17T12:54:17.590Z,11.9
2017-11-17T12:55:20.264Z,11.9
2017-11-17T12:56:22.782Z,11.7
2017-11-17T12:57:25.288Z,11.9
2017-11-17T12:58:27.801Z,11.9
2017-11-17T12:59:30.331Z,11.7
2017-11-17T13:00:33.187Z,11.8
2017-11-17T13:01:36.343Z,11.5
2017-11-17T13:02:38.855Z,11.4
2017-11-17T13:03:41.375Z,11.5
2017-11-17T13:04:43.891Z,11.6
2017-11-17T13:05:47.023Z,11.4
2017-11-17T13:06:49.828Z,11.5
2017-11-17T13:07:52.341Z,11.5
2017-11-17T13:08:55.240Z,11.6
2017-11-17T13:09:57.753Z,11.4
2017-11-17T13:11:00.275Z,11.2
2017-11-17T13:12:03.102Z,11.3
2017-11-17T13:13:05.595Z,11.2
2017-11-17T13:14:08.405Z,11.2
2017-11-17T13:15:10.921Z,11.1
2017-11-17T13:16:13.748Z,11.3
2017-11-17T13:17:16.697Z,11.3
2017-11-17T13:18:19.212Z,11.3
2017-11-17T13:19:21.756Z,11.2
2017-11-17T13:20:24.317Z,11.3
2017-11-17T13:21:26.875Z,11.2
2017-11-17T13:22:29.391Z,10.9
2017-11-17T13:23:31.908Z,10.8
2017-11-17T13:24:38.968Z,10.8
2017-11-17T13:25:49.873Z,10.8
2017-11-17T13:27:04.511Z,10.6
2017-11-17T13:28:15.626Z,10.6
2017-11-17T13:29:28.787Z,10.7
2017-11-17T13:30:37.577Z,10.7
2017-11-17T13:31:45.430Z,10.5
2017-11-17T13:32:50.119Z,10.3
2017-11-17T13:34:03.227Z,10.2
2017-11-17T13:35:18.062Z,10.2
2017-11-17T13:36:29.997Z,10.1
2017-11-17T13:37:45.117Z,10.1
2017-11-17T13:38:58.765Z,10.2
2017-11-17T13:40:10.181Z,10.2
2017-11-17T13:41:19.824Z,10.2
2017-11-17T13:42:25.229Z,10.1
2017-11-17T13:43:27.742Z,10.1
2017-11-17T13:44:30.624Z,10
2017-11-17T13:45:33.763Z,9.9
2017-11-17T13:46:36.246Z,9.9
2017-11-17T13:47:38.811Z,9.8
2017-11-17T13:48:41.315Z,9.7
2017-11-17T13:49:43.820Z,9.7
2017-11-17T13:50:46.323Z,9.7
2017-11-17T13:51:48.828Z,9.7
2017-11-17T13:52:52.243Z,9.7
2017-11-17T13:53:55.199Z,9.6
2017-11-17T13:54:58.336Z,9.5
2017-11-17T13:56:01.457Z,9.5
2017-11-17T13:57:04.038Z,9.5
2017-11-17T13:58:06.970Z,9.4
2017-11-17T13:59:09.512Z,9.4
2017-11-17T14:00:12.319Z,9.4
2017-11-17T14:01:14.813Z,9.3
2017-11-17T14:02:17.332Z,9.3
2017-11-17T14:03:19.827Z,9.2
2017-11-17T14:04:22.338Z,9.2
2017-11-17T14:05:24.846Z,9.2
2017-11-17T14:06:27.350Z,9
2017-11-17T14:07:29.850Z,9
2017-11-17T14:08:32.359Z,9
2017-11-17T14:09:34.840Z,9
2017-11-17T14:10:37.662Z,9.1
2017-11-17T14:11:40.473Z,9
2017-11-17T14:12:42.961Z,9
2017-11-17T14:13:45.476Z,8.9
2017-11-17T14:14:47.979Z,9
2017-11-17T14:15:50.502Z,9
2017-11-17T14:16:52.993Z,8.9
2017-11-17T14:17:55.495Z,8.9
2017-11-17T14:18:57.997Z,8.9
2017-11-17T14:20:00.814Z,8.9